createdAt,value
2018-03-30T00:02:06.408Z,7.62
2018-03-30T00:04:34.611Z,7.25
2018-03-30T00:07:06.916Z,7.45
2018-03-30T00:09:46.099Z,6.75
2018-03-30T00:12:13.566Z,6.68
2018-03-30T00:14:41.080Z,7.20
2018-03-30T00:17:08.499Z,7.60
2018-03-30T00:19:35.965Z,6.35
2018-03-30T00:22:03.441Z,7.18
2018-03-30T00:24:30.902Z,7.55
2018-03-30T00:26:58.350Z,7.50
2018-03-30T00:29:25.846Z,7.65
2018-03-30T00:31:53.299Z,7.28
2018-03-30T00:34:20.773Z,6.95
2018-03-30T00:36:48.207Z,6.97
2018-03-30T00:39:15.710Z,6.85
2018-03-30T00:41:43.951Z,6.70
2018-03-30T00:44:11.437Z,7.43
2018-03-30T00:46:38.943Z,6.93
2018-03-30T00:49:07.227Z,6.62
2018-03-30T00:51:34.674Z,7.18
2018-03-30T00:54:02.917Z,6.95
2018-03-30T00:56:30.362Z,6.78
2018-03-30T00:58:57.822Z,6.22
2018-03-30T01:01:25.279Z,7.15
2018-03-30T01:03:52.726Z,7.40
2018-03-30T01:06:20.236Z,6.75
2018-03-30T01:08:47.695Z,7.32
2018-03-30T01:11:15.159Z,7.18
2018-03-30T01:13:42.588Z,6.50
2018-03-30T01:16:10.126Z,6.60
2018-03-30T01:18:37.572Z,6.20
2018-03-30T01:21:05.030Z,6.37
2018-03-30T01:23:33.187Z,6.53
2018-03-30T01:26:00.664Z,6.55
2018-03-30T01:28:28.123Z,6.15
2018-03-30T01:30:55.589Z,6.65
2018-03-30T01:33:23.035Z,5.87
2018-03-30T01:35:50.524Z,6.10
2018-03-30T01:38:18.739Z,6.12
2018-03-30T01:40:46.205Z,6.18
2018-03-30T01:43:13.654Z,6.40
2018-03-30T01:45:41.150Z,7.00
2018-03-30T01:48:08.600Z,6.05
2018-03-30T01:50:36.114Z,6.12
2018-03-30T01:53:03.548Z,6.00
2018-03-30T01:55:31.036Z,5.82
2018-03-30T01:57:58.494Z,5.55
2018-03-30T02:00:25.967Z,5.90
2018-03-30T02:02:53.495Z,6.53
2018-03-30T02:05:20.958Z,5.95
2018-03-30T02:07:48.440Z,5.65
2018-03-30T02:10:15.865Z,6.62
2018-03-30T02:12:43.333Z,5.82
2018-03-30T02:15:10.773Z,5.75
2018-03-30T02:17:38.266Z,6.40
2018-03-30T02:20:05.708Z,6.50
2018-03-30T02:22:33.274Z,6.03
2018-03-30T02:25:00.707Z,7.07
2018-03-30T02:27:28.179Z,5.60
2018-03-30T02:29:55.635Z,6.18
2018-03-30T02:32:23.850Z,5.95
2018-03-30T02:34:51.297Z,5.65
2018-03-30T02:37:19.540Z,6.53
2018-03-30T02:39:47.039Z,6.00
2018-03-30T02:42:15.271Z,6.82
2018-03-30T02:44:42.733Z,6.93
2018-03-30T02:47:10.187Z,6.43
2018-03-30T02:49:37.649Z,6.43
2018-03-30T02:52:05.117Z,6.40
2018-03-30T02:54:32.584Z,7.53
2018-03-30T02:57:00.050Z,7.00
2018-03-30T02:59:27.543Z,6.20
2018-03-30T03:01:54.983Z,7.00
2018-03-30T03:04:22.436Z,7.32
2018-03-30T03:06:49.923Z,6.45
2018-03-30T03:09:17.395Z,6.40
2018-03-30T03:11:44.840Z,6.87
2018-03-30T03:14:12.333Z,6.50
2018-03-30T03:16:40.568Z,6.97
2018-03-30T03:19:08.044Z,6.57
2018-03-30T03:21:35.500Z,6.70
2018-03-30T03:24:02.961Z,7.30
2018-03-30T03:26:30.439Z,6.37
2018-03-30T03:28:58.672Z,7.20
2018-03-30T03:31:26.124Z,7.65
2018-03-30T03:33:53.583Z,6.87
2018-03-30T03:36:21.810Z,6.50
2018-03-30T03:38:49.321Z,7.00
2018-03-30T03:41:16.805Z,6.75
2018-03-30T03:43:45.016Z,5.97
2018-03-30T03:46:12.504Z,6.60
2018-03-30T03:48:39.940Z,7.45
2018-03-30T03:51:07.421Z,6.20
2018-03-30T03:53:34.900Z,6.05
2018-03-30T03:56:03.221Z,6.85
2018-03-30T03:58:30.677Z,7.37
2018-03-30T04:00:58.145Z,6.43
2018-03-30T04:03:26.423Z,7.20
2018-03-30T04:05:53.923Z,6.00
2018-03-30T04:08:22.124Z,5.57
2018-03-30T04:10:49.615Z,7.43
2018-03-30T04:13:17.060Z,6.53
2018-03-30T04:15:44.520Z,6.70
2018-03-30T04:18:11.962Z,5.07
2018-03-30T04:20:39.436Z,6.50
2018-03-30T04:23:07.060Z,5.50
2018-03-30T04:25:34.535Z,6.00
2018-03-30T04:28:01.991Z,6.35
2018-03-30T04:30:29.438Z,5.05
2018-03-30T04:32:56.905Z,5.95
2018-03-30T04:35:24.355Z,6.50
2018-03-30T04:37:51.916Z,5.85
2018-03-30T04:40:19.392Z,7.90
2018-03-30T04:42:46.856Z,6.95
2018-03-30T04:45:14.297Z,7.10
2018-03-30T04:47:41.745Z,6.80
2018-03-30T04:50:09.200Z,8.40
2018-03-30T04:52:36.659Z,7.62
2018-03-30T04:55:04.105Z,7.45
2018-03-30T04:57:31.569Z,7.90
2018-03-30T04:59:59.095Z,7.43
2018-03-30T05:02:27.331Z,7.25
2018-03-30T05:04:54.775Z,7.30
2018-03-30T05:07:22.225Z,7.28
2018-03-30T05:09:49.680Z,7.47
2018-03-30T05:12:17.127Z,7.62
2018-03-30T05:14:44.653Z,6.72
2018-03-30T05:17:12.087Z,6.50
2018-03-30T05:19:40.358Z,7.50
2018-03-30T05:22:07.865Z,6.47
2018-03-30T05:24:36.044Z,6.35
2018-03-30T05:27:03.501Z,6.87
2018-03-30T05:29:30.960Z,6.95
2018-03-30T05:31:58.452Z,6.53
2018-03-30T05:34:25.903Z,6.32
2018-03-30T05:36:53.344Z,6.25
2018-03-30T05:39:20.828Z,6.20
2018-03-30T05:41:48.315Z,6.50
2018-03-30T05:44:15.769Z,6.47
2018-03-30T05:46:43.231Z,6.05
2018-03-30T05:49:10.684Z,5.53
2018-03-30T05:51:38.171Z,5.47
2018-03-30T05:54:05.629Z,5.20
2018-03-30T05:56:33.079Z,5.65
2018-03-30T05:59:00.548Z,5.25
2018-03-30T06:01:27.999Z,5.60
2018-03-30T06:03:55.452Z,5.30
2018-03-30T06:06:22.908Z,5.53
2018-03-30T06:08:50.348Z,5.80
2018-03-30T06:11:17.825Z,5.50
2018-03-30T06:13:45.281Z,5.82
2018-03-30T06:16:12.744Z,5.37
2018-03-30T06:18:40.212Z,5.57
2018-03-30T06:21:07.688Z,6.45
2018-03-30T06:23:35.909Z,5.40
2018-03-30T06:26:03.348Z,5.10
2018-03-30T06:28:30.830Z,6.22
2018-03-30T06:30:58.282Z,5.78
2018-03-30T06:33:27.281Z,5.28
2018-03-30T06:35:54.738Z,6.05
2018-03-30T06:38:22.222Z,5.47
2018-03-30T06:40:49.669Z,6.10
2018-03-30T06:43:17.122Z,5.50
2018-03-30T06:45:44.576Z,5.90
2018-03-30T06:48:12.028Z,6.72
2018-03-30T06:50:39.505Z,5.62
2018-03-30T06:53:06.960Z,5.62
2018-03-30T06:55:34.431Z,5.65
2018-03-30T06:58:02.648Z,6.60
2018-03-30T07:00:30.101Z,6.25
2018-03-30T07:02:57.597Z,6.45
2018-03-30T07:05:25.794Z,6.65
2018-03-30T07:07:53.241Z,6.10
2018-03-30T07:10:21.490Z,5.68
2018-03-30T07:12:48.980Z,6.20
2018-03-30T07:15:17.216Z,5.68
2018-03-30T07:17:44.653Z,6.28
2018-03-30T07:20:12.177Z,6.37
2018-03-30T07:22:39.624Z,7.10
2018-03-30T07:25:07.104Z,7.22
2018-03-30T07:27:34.546Z,6.15
2018-03-30T07:30:02.046Z,7.25
2018-03-30T07:32:29.482Z,7.73
2018-03-30T07:34:56.969Z,7.00
2018-03-30T07:37:24.450Z,7.00
2018-03-30T07:39:53.280Z,6.95
2018-03-30T07:42:20.733Z,7.75
2018-03-30T07:44:48.191Z,7.50
2018-03-30T07:47:15.666Z,7.50
2018-03-30T07:49:43.112Z,6.73
2018-03-30T07:52:10.608Z,8.60
2018-03-30T07:54:38.078Z,7.37
2018-03-30T07:57:06.304Z,7.87
2018-03-30T07:59:34.099Z,7.83
2018-03-30T08:02:01.564Z,8.50
2018-03-30T08:04:29.789Z,8.60
2018-03-30T08:06:57.271Z,8.20
2018-03-30T08:09:24.742Z,7.90
2018-03-30T08:11:53.004Z,8.63
2018-03-30T08:14:20.479Z,8.87
2018-03-30T08:16:47.965Z,8.50
2018-03-30T08:19:16.171Z,8.30
2018-03-30T08:21:43.653Z,8.80
2018-03-30T08:24:11.113Z,8.50
2018-03-30T08:26:38.575Z,9.00
2018-03-30T08:29:06.031Z,10.23
2018-03-30T08:31:33.669Z,9.53
2018-03-30T08:34:01.104Z,9.90
2018-03-30T08:36:28.569Z,8.63
2018-03-30T08:38:56.133Z,10.27
2018-03-30T08:41:23.597Z,9.40
2018-03-30T08:43:51.073Z,9.23
2018-03-30T08:46:18.548Z,9.73
2018-03-30T08:48:46.783Z,8.87
2018-03-30T08:51:14.260Z,10.33
2018-03-30T08:53:41.761Z,9.47
2018-03-30T08:56:09.212Z,8.80
2018-03-30T08:58:36.674Z,8.63
2018-03-30T09:01:04.126Z,9.30
2018-03-30T09:03:31.600Z,9.70
2018-03-30T09:05:59.137Z,9.60
2018-03-30T09:08:31.836Z,8.83
2018-03-30T09:10:59.313Z,9.70
2018-03-30T09:13:26.791Z,9.80
2018-03-30T09:15:54.320Z,10.73
2018-03-30T09:18:21.781Z,9.90
2018-03-30T09:20:49.268Z,10.20
2018-03-30T09:23:16.723Z,10.80
2018-03-30T09:25:44.185Z,10.40
2018-03-30T09:28:12.085Z,10.97
2018-03-30T09:30:39.541Z,11.27
2018-03-30T09:33:07.057Z,10.23
2018-03-30T09:35:34.528Z,10.67
2018-03-30T09:38:02.796Z,9.93
2018-03-30T09:40:31.037Z,9.93
2018-03-30T09:42:58.508Z,9.70
2018-03-30T09:45:26.148Z,9.40
2018-03-30T09:47:53.651Z,10.30
2018-03-30T09:50:21.921Z,9.40
2018-03-30T09:52:50.181Z,9.57
2018-03-30T09:55:17.611Z,9.20
2018-03-30T09:57:45.111Z,8.47
2018-03-30T10:00:13.377Z,8.60
2018-03-30T10:02:40.851Z,8.77
2018-03-30T10:05:09.068Z,8.10
2018-03-30T10:07:36.529Z,9.90
2018-03-30T10:10:05.622Z,9.30
2018-03-30T10:12:33.158Z,8.27
2018-03-30T10:15:00.645Z,8.77
2018-03-30T10:17:28.104Z,8.83
2018-03-30T10:19:55.547Z,9.00
2018-03-30T10:22:23.027Z,9.27
2018-03-30T10:24:50.551Z,8.30
2018-03-30T10:27:17.997Z,8.40
2018-03-30T10:29:45.459Z,7.17
2018-03-30T10:32:12.928Z,8.30
2018-03-30T10:34:40.373Z,6.27
2018-03-30T10:37:08.712Z,6.93
2018-03-30T10:39:37.051Z,6.87
2018-03-30T10:42:05.272Z,5.93
2018-03-30T10:44:32.745Z,5.70
2018-03-30T10:47:00.193Z,4.70
2018-03-30T10:49:27.661Z,4.80
2018-03-30T10:51:55.123Z,5.00
2018-03-30T10:54:22.657Z,4.43
2018-03-30T10:56:50.111Z,4.80
2018-03-30T10:59:18.356Z,3.90
2018-03-30T11:01:45.806Z,4.37
2018-03-30T11:04:13.275Z,4.57
2018-03-30T11:06:40.719Z,5.17
2018-03-30T11:09:08.196Z,4.73
2018-03-30T11:11:36.436Z,4.80
2018-03-30T11:14:03.902Z,4.77
2018-03-30T11:16:31.354Z,4.53
2018-03-30T11:18:58.816Z,4.60
2018-03-30T11:21:26.255Z,4.80
2018-03-30T11:23:53.737Z,4.80
2018-03-30T11:26:21.196Z,5.07
2018-03-30T11:28:48.679Z,4.93
2018-03-30T11:31:16.914Z,5.10
2018-03-30T11:33:44.880Z,5.50
2018-03-30T11:36:12.342Z,4.30
2018-03-30T11:38:39.796Z,3.93
2018-03-30T11:41:07.420Z,4.30
2018-03-30T11:43:34.915Z,3.60
2018-03-30T11:46:02.414Z,4.70
2018-03-30T11:48:29.852Z,3.77
2018-03-30T11:50:57.891Z,6.10
2018-03-30T11:53:25.348Z,5.33
2018-03-30T11:55:53.302Z,5.73
2018-03-30T11:58:20.771Z,5.30
2018-03-30T12:00:48.244Z,3.37
2018-03-30T12:03:15.687Z,3.33
2018-03-30T12:05:43.222Z,3.70
2018-03-30T12:08:10.663Z,2.80
2018-03-30T12:10:38.125Z,2.77
2018-03-30T12:13:05.586Z,3.37
2018-03-30T12:15:33.047Z,3.20
2018-03-30T12:18:00.508Z,3.20
2018-03-30T12:20:28.717Z,3.70
2018-03-30T12:22:57.081Z,3.60
2018-03-30T12:25:24.520Z,3.63
2018-03-30T12:27:51.992Z,4.50
2018-03-30T12:30:19.488Z,4.97
2018-03-30T12:32:46.965Z,5.00
2018-03-30T12:35:15.140Z,4.30
2018-03-30T12:37:42.626Z,4.00
2018-03-30T12:40:10.095Z,4.67
2018-03-30T12:42:37.589Z,4.20
2018-03-30T12:45:05.052Z,4.70
2018-03-30T12:47:32.488Z,4.13
2018-03-30T12:50:00.708Z,4.53
2018-03-30T12:52:28.253Z,5.07
2018-03-30T12:54:55.723Z,5.13
2018-03-30T12:57:23.171Z,5.47
2018-03-30T12:59:51.135Z,5.20
2018-03-30T13:02:18.596Z,5.27
2018-03-30T13:04:46.072Z,5.90
2018-03-30T13:07:14.280Z,5.93
2018-03-30T13:09:41.752Z,5.90
2018-03-30T13:12:09.277Z,6.53
2018-03-30T13:14:36.747Z,6.60
2018-03-30T13:17:04.211Z,7.17
2018-03-30T13:19:32.476Z,6.13
2018-03-30T13:21:59.918Z,6.30
2018-03-30T13:24:27.437Z,7.37
2018-03-30T13:26:54.913Z,6.60
2018-03-30T13:29:22.805Z,5.87
2018-03-30T13:31:50.263Z,6.37
2018-03-30T13:34:18.538Z,6.40
2018-03-30T13:36:46.012Z,7.90
2018-03-30T13:39:14.258Z,6.93
2018-03-30T13:41:41.744Z,7.33
2018-03-30T13:44:09.977Z,8.33
2018-03-30T13:46:37.491Z,6.93
2018-03-30T13:49:04.932Z,7.77
2018-03-30T13:51:44.924Z,7.13
2018-03-30T13:54:13.350Z,6.67
2018-03-30T13:56:41.650Z,7.40
2018-03-30T13:59:12.788Z,6.83
2018-03-30T14:01:42.053Z,6.60
2018-03-30T14:04:15.314Z,6.60
2018-03-30T14:06:52.388Z,7.67
2018-03-30T14:09:21.793Z,7.50
2018-03-30T14:12:08.905Z,6.60
2018-03-30T14:14:36.362Z,7.13
2018-03-30T14:17:05.634Z,7.50
2018-03-30T14:19:34.015Z,6.57
2018-03-30T14:22:18.241Z,7.37
2018-03-30T14:24:49.279Z,8.37
2018-03-30T14:27:21.070Z,7.50
2018-03-30T14:29:53.067Z,7.50
2018-03-30T14:32:27.321Z,8.13
2018-03-30T14:34:59.925Z,7.43
2018-03-30T14:37:27.986Z,7.47
2018-03-30T14:42:55.445Z,7.20
2018-03-30T14:45:29.175Z,8.03
2018-03-30T14:47:59.236Z,7.37
2018-03-30T14:50:30.200Z,7.10
2018-03-30T14:53:02.003Z,6.07
2018-03-30T14:55:29.449Z,6.47
2018-03-30T14:58:01.627Z,6.20
2018-03-30T15:00:29.851Z,5.50
2018-03-30T15:03:01.961Z,5.70
2018-03-30T15:05:54.211Z,5.17
2018-03-30T15:08:24.366Z,4.90
2018-03-30T15:10:57.878Z,5.40
2018-03-30T15:13:25.352Z,5.60
2018-03-30T15:15:55.301Z,5.10
2018-03-30T15:18:43.244Z,5.07
2018-03-30T15:21:30.493Z,4.53
2018-03-30T15:23:58.706Z,5.13
2018-03-30T15:26:28.193Z,4.20
2018-03-30T15:28:56.240Z,3.90
2018-03-30T15:31:24.476Z,3.67
2018-03-30T15:33:58.632Z,3.93
2018-03-30T15:36:27.815Z,3.67
2018-03-30T15:38:55.320Z,3.70
2018-03-30T15:41:22.788Z,3.73
2018-03-30T15:43:50.232Z,3.10
2018-03-30T15:46:18.443Z,4.93
2018-03-30T15:48:45.922Z,3.37
2018-03-30T15:51:14.175Z,3.60
2018-03-30T15:53:41.905Z,3.37
2018-03-30T15:56:09.371Z,3.80
2018-03-30T15:58:36.814Z,4.37
2018-03-30T16:01:04.275Z,3.17
2018-03-30T16:03:31.743Z,3.47
2018-03-30T16:05:59.289Z,4.10
2018-03-30T16:08:26.737Z,5.87
2018-03-30T16:11:09.871Z,2.90
2018-03-30T16:13:37.348Z,2.80
2018-03-30T16:16:04.778Z,2.80
2018-03-30T16:18:44.053Z,2.73
2018-03-30T16:21:11.123Z,3.10
2018-03-30T16:23:38.883Z,2.83
2018-03-30T16:26:05.841Z,2.93
2018-03-30T16:28:32.928Z,2.50
2018-03-30T16:30:59.886Z,2.00
2018-03-30T16:33:26.869Z,3.00
2018-03-30T16:35:54.588Z,2.80
2018-03-30T16:38:21.581Z,2.43
2018-03-30T16:40:49.300Z,2.23
2018-03-30T16:43:16.263Z,2.73
2018-03-30T16:45:43.252Z,3.43
2018-03-30T16:48:10.207Z,3.03
2018-03-30T16:50:37.180Z,2.83
2018-03-30T16:53:04.922Z,3.30
2018-03-30T16:55:31.885Z,2.63
2018-03-30T16:57:58.836Z,3.07
2018-03-30T17:00:25.807Z,2.50
2018-03-30T17:02:52.794Z,3.50
2018-03-30T17:05:19.756Z,2.97
2018-03-30T17:07:46.716Z,2.60
2018-03-30T17:10:13.689Z,3.63
2018-03-30T17:12:41.419Z,2.70
2018-03-30T17:15:08.420Z,2.77
2018-03-30T17:17:35.383Z,2.80
2018-03-30T17:20:02.369Z,2.80
2018-03-30T17:22:29.337Z,2.73
2018-03-30T17:24:56.312Z,2.53
2018-03-30T17:27:23.271Z,2.53
2018-03-30T17:29:50.258Z,2.57
2018-03-30T17:32:18.027Z,3.10
2018-03-30T17:34:45.799Z,3.17
2018-03-30T17:37:12.788Z,2.90
2018-03-30T17:39:39.784Z,3.20
2018-03-30T17:42:07.553Z,3.67
2018-03-30T17:44:35.373Z,2.90
2018-03-30T17:47:02.356Z,6.00
2018-03-30T17:49:30.079Z,4.27
2018-03-30T17:51:57.199Z,3.13
2018-03-30T17:54:24.198Z,3.93
2018-03-30T17:56:51.163Z,2.70
2018-03-30T17:59:19.024Z,3.07
2018-03-30T18:01:46.781Z,3.33
2018-03-30T18:04:13.782Z,3.17
2018-03-30T18:06:40.732Z,3.93
2018-03-30T18:09:07.781Z,3.50
2018-03-30T18:11:34.754Z,4.03
2018-03-30T18:14:02.473Z,3.87
2018-03-30T18:16:29.447Z,4.20
2018-03-30T18:18:56.425Z,3.60
2018-03-30T18:21:23.495Z,3.83
2018-03-30T18:23:50.468Z,4.80
2018-03-30T18:26:17.425Z,3.77
2018-03-30T18:28:44.423Z,4.37
2018-03-30T18:31:11.384Z,4.97
2018-03-30T18:33:38.358Z,5.17
2018-03-30T18:36:05.312Z,6.03
2018-03-30T18:38:32.288Z,6.33
2018-03-30T18:40:59.270Z,5.70
2018-03-30T18:43:26.238Z,5.30
2018-03-30T18:45:53.997Z,5.00
2018-03-30T18:48:21.760Z,5.33
2018-03-30T18:50:48.714Z,5.47
2018-03-30T18:53:15.715Z,5.90
2018-03-30T18:55:42.682Z,6.63
2018-03-30T18:58:09.651Z,5.57
2018-03-30T19:00:36.660Z,6.00
2018-03-30T19:03:03.633Z,7.63
2018-03-30T19:05:30.621Z,9.40
2018-03-30T19:07:57.631Z,9.20
2018-03-30T19:10:24.620Z,9.03
2018-03-30T19:12:51.579Z,9.60
2018-03-30T19:15:18.570Z,8.40
2018-03-30T19:17:46.333Z,8.50
2018-03-30T19:20:13.313Z,7.63
2018-03-30T19:22:40.282Z,8.00
2018-03-30T19:25:07.776Z,7.57
2018-03-30T19:27:34.788Z,5.73
2018-03-30T19:30:01.769Z,4.77
2018-03-30T19:32:28.759Z,4.53
2018-03-30T19:34:55.784Z,4.70
2018-03-30T19:37:22.754Z,4.40
2018-03-30T19:39:49.760Z,4.32
2018-03-30T19:42:17.596Z,4.05
2018-03-30T19:44:45.279Z,4.72
2018-03-30T19:47:12.264Z,3.83
2018-03-30T19:49:39.348Z,3.65
2018-03-30T19:52:06.346Z,4.53
2018-03-30T19:54:33.318Z,3.67
2018-03-30T19:57:00.311Z,3.53
2018-03-30T19:59:28.045Z,4.18
2018-03-30T20:01:55.040Z,3.87
2018-03-30T20:04:22.744Z,2.85
2018-03-30T20:06:49.739Z,3.65
2018-03-30T20:09:16.849Z,2.80
2018-03-30T20:11:44.007Z,3.10
2018-03-30T20:14:11.218Z,3.45
2018-03-30T20:16:38.185Z,3.10
2018-03-30T20:19:05.171Z,3.97
2018-03-30T20:21:32.156Z,3.50
2018-03-30T20:23:59.281Z,3.37
2018-03-30T20:26:26.232Z,3.35
2018-03-30T20:28:53.269Z,3.20
2018-03-30T20:31:20.218Z,3.30
2018-03-30T20:33:47.240Z,3.25
2018-03-30T20:36:14.972Z,3.20
2018-03-30T20:38:41.968Z,3.00
2018-03-30T20:41:08.974Z,3.00
2018-03-30T20:43:35.985Z,3.28
2018-03-30T20:46:02.979Z,3.30
2018-03-30T20:48:30.710Z,3.65
2018-03-30T20:50:57.697Z,3.62
2018-03-30T20:53:24.682Z,2.75
2018-03-30T20:55:51.781Z,3.50
2018-03-30T20:58:19.510Z,4.25
2018-03-30T21:00:46.494Z,3.10
2018-03-30T21:03:14.244Z,2.65
2018-03-30T21:05:42.052Z,2.35
2018-03-30T21:08:09.090Z,2.50
2018-03-30T21:10:36.126Z,2.30
2018-03-30T21:13:03.098Z,2.60
2018-03-30T21:15:30.082Z,2.42
2018-03-30T21:17:57.048Z,2.10
2018-03-30T21:20:25.218Z,2.05
2018-03-30T21:22:52.968Z,1.80
2018-03-30T21:25:19.967Z,1.73
2018-03-30T21:27:46.922Z,1.42
2018-03-30T21:30:13.888Z,2.00
2018-03-30T21:32:40.859Z,1.70
2018-03-30T21:35:08.610Z,1.65
2018-03-30T21:37:35.575Z,1.60
2018-03-30T21:40:02.532Z,1.60
2018-03-30T21:42:29.508Z,1.23
2018-03-30T21:44:56.482Z,1.33
2018-03-30T21:47:23.527Z,1.77
2018-03-30T21:49:50.481Z,1.55
2018-03-30T21:52:18.224Z,2.28
2018-03-30T21:54:45.217Z,1.40
2018-03-30T21:57:12.259Z,1.50
2018-03-30T21:59:39.978Z,1.33
2018-03-30T22:02:06.945Z,1.70
2018-03-30T22:04:34.658Z,1.23
2018-03-30T22:07:01.729Z,1.62
2018-03-30T22:09:28.689Z,1.50
2018-03-30T22:11:56.438Z,1.70
2018-03-30T22:14:23.516Z,1.92
2018-03-30T22:16:51.231Z,1.40
2018-03-30T22:19:18.203Z,2.00
2018-03-30T22:21:45.188Z,1.52
2018-03-30T22:24:12.223Z,1.80
2018-03-30T22:26:40.449Z,1.30
2018-03-30T22:29:07.489Z,1.50
2018-03-30T22:31:34.420Z,1.52
2018-03-30T22:34:02.163Z,1.80
2018-03-30T22:36:29.871Z,1.45
2018-03-30T22:38:56.852Z,1.73
2018-03-30T22:41:24.574Z,1.60
2018-03-30T22:43:52.314Z,1.70
2018-03-30T22:46:19.272Z,1.37
2018-03-30T22:48:46.243Z,1.87
2018-03-30T22:51:13.867Z,1.90
2018-03-30T22:53:40.847Z,1.65
2018-03-30T22:56:07.843Z,2.10
2018-03-30T22:58:34.795Z,2.30
2018-03-30T23:01:01.791Z,1.95
2018-03-30T23:03:29.533Z,2.00
2018-03-30T23:05:56.491Z,1.98
2018-03-30T23:08:24.219Z,2.00
2018-03-30T23:10:51.190Z,2.40
2018-03-30T23:13:18.156Z,2.45
2018-03-30T23:15:46.001Z,2.25
2018-03-30T23:18:12.963Z,2.22
2018-03-30T23:20:40.687Z,2.30
2018-03-30T23:23:08.410Z,1.90
2018-03-30T23:25:35.419Z,2.12
2018-03-30T23:30:35.843Z,2.40
2018-03-30T23:33:02.783Z,2.75
2018-03-30T23:35:29.732Z,2.78
2018-03-30T23:37:56.708Z,2.65
2018-03-30T23:40:24.437Z,2.55
2018-03-30T23:42:51.397Z,3.53
2018-03-30T23:45:18.355Z,3.40
2018-03-30T23:47:46.087Z,3.47
2018-03-30T23:50:13.044Z,3.17
2018-03-30T23:52:40.017Z,3.25
2018-03-30T23:55:07.744Z,3.20
2018-03-30T23:57:34.714Z,3.20
